sensor_id;sensor_type;location;lat;lon;timestamp;temperature;humidity
2054;DHT22;1032;52.542;13.440;2022-07-23T00:01:22;20.80;93.60
2054;DHT22;1032;52.542;13.440;2022-07-23T00:03:50;20.80;93.50
2054;DHT22;1032;52.542;13.440;2022-07-23T00:06:19;20.60;93.40
2054;DHT22;1032;52.542;13.440;2022-07-23T00:08:46;20.70;93.30
2054;DHT22;1032;52.542;13.440;2022-07-23T00:11:12;20.60;93.30
2054;DHT22;1032;52.542;13.440;2022-07-23T00:13:39;20.60;93.30
2054;DHT22;1032;52.542;13.440;2022-07-23T00:16:06;20.60;93.30
2054;DHT22;1032;52.542;13.440;2022-07-23T00:18:33;20.60;93.30
2054;DHT22;1032;52.542;13.440;2022-07-23T00:21:01;20.70;93.30
2054;DHT22;1032;52.542;13.440;2022-07-23T00:23:28;20.40;93.10
2054;DHT22;1032;52.542;13.440;2022-07-23T00:25:56;20.30;93.00
2054;DHT22;1032;52.542;13.440;2022-07-23T00:28:23;20.40;93.10
2054;DHT22;1032;52.542;13.440;2022-07-23T00:30:50;20.70;93.20
2054;DHT22;1032;52.542;13.440;2022-07-23T00:33:16;20.80;93.20
2054;DHT22;1032;52.542;13.440;2022-07-23T00:35:43;20.50;93.00
2054;DHT22;1032;52.542;13.440;2022-07-23T00:38:11;20.60;93.00
2054;DHT22;1032;52.542;13.440;2022-07-23T00:40:38;20.60;93.00
2054;DHT22;1032;52.542;13.440;2022-07-23T00:43:06;20.70;93.10
2054;DHT22;1032;52.542;13.440;2022-07-23T00:45:32;20.50;92.90
2054;DHT22;1032;52.542;13.440;2022-07-23T00:47:59;20.90;93.20
2054;DHT22;1032;52.542;13.440;2022-07-23T00:50:27;20.40;92.90
2054;DHT22;1032;52.542;13.440;2022-07-23T00:52:55;20.30;92.90
2054;DHT22;1032;52.542;13.440;2022-07-23T00:55:23;20.90;93.20
2054;DHT22;1032;52.542;13.440;2022-07-23T00:57:50;20.70;93.20
2054;DHT22;1032;52.542;13.440;2022-07-23T01:00:17;20.50;93.10
2054;DHT22;1032;52.542;13.440;2022-07-23T01:02:43;20.10;92.90
2054;DHT22;1032;52.542;13.440;2022-07-23T01:05:10;20.60;93.30
2054;DHT22;1032;52.542;13.440;2022-07-23T01:07:37;20.60;93.40
2054;DHT22;1032;52.542;13.440;2022-07-23T01:10:05;20.40;93.40
2054;DHT22;1032;52.542;13.440;2022-07-23T01:12:53;20.30;93.50
2054;DHT22;1032;52.542;13.440;2022-07-23T01:15:21;19.90;93.40
2054;DHT22;1032;52.542;13.440;2022-07-23T01:17:48;20.20;93.60
2054;DHT22;1032;52.542;13.440;2022-07-23T01:20:15;20.20;93.70
2054;DHT22;1032;52.542;13.440;2022-07-23T01:22:43;20.20;93.80
2054;DHT22;1032;52.542;13.440;2022-07-23T01:25:10;20.10;93.80
2054;DHT22;1032;52.542;13.440;2022-07-23T01:27:39;19.80;93.80
2054;DHT22;1032;52.542;13.440;2022-07-23T01:30:08;19.80;93.90
2054;DHT22;1032;52.542;13.440;2022-07-23T01:32:35;20.00;94.10
2054;DHT22;1032;52.542;13.440;2022-07-23T01:35:01;19.80;94.10
2054;DHT22;1032;52.542;13.440;2022-07-23T01:37:28;19.90;94.20
2054;DHT22;1032;52.542;13.440;2022-07-23T01:39:56;19.80;94.40
2054;DHT22;1032;52.542;13.440;2022-07-23T01:42:24;19.90;94.40
2054;DHT22;1032;52.542;13.440;2022-07-23T01:45:10;19.80;94.40
2054;DHT22;1032;52.542;13.440;2022-07-23T01:47:40;19.80;94.50
2054;DHT22;1032;52.542;13.440;2022-07-23T01:50:08;19.80;94.60
2054;DHT22;1032;52.542;13.440;2022-07-23T01:52:43;19.70;94.50
2054;DHT22;1032;52.542;13.440;2022-07-23T01:55:11;19.70;94.60
2054;DHT22;1032;52.542;13.440;2022-07-23T01:57:41;19.70;94.70
2054;DHT22;1032;52.542;13.440;2022-07-23T02:00:10;19.60;94.70
2054;DHT22;1032;52.542;13.440;2022-07-23T02:02:41;19.60;94.80
2054;DHT22;1032;52.542;13.440;2022-07-23T02:05:08;19.60;94.90
2054;DHT22;1032;52.542;13.440;2022-07-23T02:07:36;19.60;94.90
2054;DHT22;1032;52.542;13.440;2022-07-23T02:10:03;19.60;95.00
2054;DHT22;1032;52.542;13.440;2022-07-23T02:12:31;19.60;95.00
2054;DHT22;1032;52.542;13.440;2022-07-23T02:14:58;19.50;94.90
2054;DHT22;1032;52.542;13.440;2022-07-23T02:17:25;19.50;94.90
2054;DHT22;1032;52.542;13.440;2022-07-23T02:19:51;19.50;94.90
2054;DHT22;1032;52.542;13.440;2022-07-23T02:22:18;19.40;94.90
2054;DHT22;1032;52.542;13.440;2022-07-23T02:24:45;19.60;95.10
2054;DHT22;1032;52.542;13.440;2022-07-23T02:27:12;19.70;95.10
2054;DHT22;1032;52.542;13.440;2022-07-23T02:29:40;19.50;95.10
2054;DHT22;1032;52.542;13.440;2022-07-23T02:32:06;19.20;95.00
2054;DHT22;1032;52.542;13.440;2022-07-23T02:34:33;19.50;95.10
2054;DHT22;1032;52.542;13.440;2022-07-23T02:37:00;19.50;95.20
2054;DHT22;1032;52.542;13.440;2022-07-23T02:39:28;19.40;95.20
2054;DHT22;1032;52.542;13.440;2022-07-23T02:41:55;19.40;95.40
2054;DHT22;1032;52.542;13.440;2022-07-23T02:44:22;19.40;95.40
2054;DHT22;1032;52.542;13.440;2022-07-23T02:46:52;19.20;95.40
2054;DHT22;1032;52.542;13.440;2022-07-23T02:49:19;19.40;95.60
2054;DHT22;1032;52.542;13.440;2022-07-23T02:51:48;19.50;95.70
2054;DHT22;1032;52.542;13.440;2022-07-23T02:54:15;19.30;95.70
2054;DHT22;1032;52.542;13.440;2022-07-23T02:56:42;19.20;95.90
2054;DHT22;1032;52.542;13.440;2022-07-23T02:59:08;19.20;96.00
2054;DHT22;1032;52.542;13.440;2022-07-23T03:01:36;19.10;96.40
2054;DHT22;1032;52.542;13.440;2022-07-23T03:04:04;19.20;96.30
2054;DHT22;1032;52.542;13.440;2022-07-23T03:06:31;19.00;96.60
2054;DHT22;1032;52.542;13.440;2022-07-23T03:08:57;19.10;96.50
2054;DHT22;1032;52.542;13.440;2022-07-23T03:11:24;19.40;96.90
2054;DHT22;1032;52.542;13.440;2022-07-23T03:13:50;19.30;96.90
2054;DHT22;1032;52.542;13.440;2022-07-23T03:16:19;19.00;96.80
2054;DHT22;1032;52.542;13.440;2022-07-23T03:18:46;19.00;96.90
2054;DHT22;1032;52.542;13.440;2022-07-23T03:21:14;19.00;97.00
2054;DHT22;1032;52.542;13.440;2022-07-23T03:23:40;19.10;96.80
2054;DHT22;1032;52.542;13.440;2022-07-23T03:26:07;18.50;96.70
2054;DHT22;1032;52.542;13.440;2022-07-23T03:28:34;18.70;96.80
2054;DHT22;1032;52.542;13.440;2022-07-23T03:31:01;18.80;96.80
2054;DHT22;1032;52.542;13.440;2022-07-23T03:33:27;18.50;96.70
2054;DHT22;1032;52.542;13.440;2022-07-23T03:35:54;18.90;96.90
2054;DHT22;1032;52.542;13.440;2022-07-23T03:38:26;18.50;96.70
2054;DHT22;1032;52.542;13.440;2022-07-23T03:40:54;18.50;96.70
2054;DHT22;1032;52.542;13.440;2022-07-23T03:43:20;19.00;97.00
2054;DHT22;1032;52.542;13.440;2022-07-23T03:45:49;18.70;96.90
2054;DHT22;1032;52.542;13.440;2022-07-23T03:48:16;18.70;96.90
2054;DHT22;1032;52.542;13.440;2022-07-23T03:50:44;18.60;96.80
2054;DHT22;1032;52.542;13.440;2022-07-23T03:53:10;18.60;96.80
2054;DHT22;1032;52.542;13.440;2022-07-23T03:55:38;18.70;96.80
2054;DHT22;1032;52.542;13.440;2022-07-23T03:58:05;18.80;96.70
2054;DHT22;1032;52.542;13.440;2022-07-23T04:00:32;18.50;96.50
2054;DHT22;1032;52.542;13.440;2022-07-23T04:02:58;18.70;96.60
2054;DHT22;1032;52.542;13.440;2022-07-23T04:05:26;18.60;96.50
2054;DHT22;1032;52.542;13.440;2022-07-23T04:08:01;18.70;96.40
2054;DHT22;1032;52.542;13.440;2022-07-23T04:10:27;18.70;96.30
2054;DHT22;1032;52.542;13.440;2022-07-23T04:12:55;18.60;96.20
2054;DHT22;1032;52.542;13.440;2022-07-23T04:15:22;18.30;95.80
2054;DHT22;1032;52.542;13.440;2022-07-23T04:17:49;18.50;95.70
2054;DHT22;1032;52.542;13.440;2022-07-23T04:20:17;18.40;95.60
2054;DHT22;1032;52.542;13.440;2022-07-23T04:22:52;19.10;95.90
2054;DHT22;1032;52.542;13.440;2022-07-23T04:25:19;18.70;95.70
2054;DHT22;1032;52.542;13.440;2022-07-23T04:27:46;18.70;95.30
2054;DHT22;1032;52.542;13.440;2022-07-23T04:30:13;18.60;95.20
2054;DHT22;1032;52.542;13.440;2022-07-23T04:32:40;18.80;95.30
2054;DHT22;1032;52.542;13.440;2022-07-23T04:35:15;18.20;94.60
2054;DHT22;1032;52.542;13.440;2022-07-23T04:37:42;18.60;94.70
2054;DHT22;1032;52.542;13.440;2022-07-23T04:40:09;18.50;94.40
2054;DHT22;1032;52.542;13.440;2022-07-23T04:42:36;18.60;94.30
2054;DHT22;1032;52.542;13.440;2022-07-23T04:45:03;18.60;94.70
2054;DHT22;1032;52.542;13.440;2022-07-23T04:47:31;18.60;94.80
2054;DHT22;1032;52.542;13.440;2022-07-23T04:49:58;18.50;95.20
2054;DHT22;1032;52.542;13.440;2022-07-23T04:52:25;18.70;96.10
2054;DHT22;1032;52.542;13.440;2022-07-23T04:54:52;19.00;96.40
2054;DHT22;1032;52.542;13.440;2022-07-23T04:57:18;18.50;97.00
2054;DHT22;1032;52.542;13.440;2022-07-23T04:59:45;18.60;97.00
2054;DHT22;1032;52.542;13.440;2022-07-23T05:02:12;18.60;96.70
2054;DHT22;1032;52.542;13.440;2022-07-23T05:04:40;18.70;97.00
2054;DHT22;1032;52.542;13.440;2022-07-23T05:07:07;18.60;97.20
2054;DHT22;1032;52.542;13.440;2022-07-23T05:09:34;18.50;97.40
2054;DHT22;1032;52.542;13.440;2022-07-23T05:12:00;18.50;97.60
2054;DHT22;1032;52.542;13.440;2022-07-23T05:14:28;18.20;97.90
2054;DHT22;1032;52.542;13.440;2022-07-23T05:16:55;18.30;98.20
2054;DHT22;1032;52.542;13.440;2022-07-23T05:19:22;18.20;98.60
2054;DHT22;1032;52.542;13.440;2022-07-23T05:21:51;18.20;98.70
2054;DHT22;1032;52.542;13.440;2022-07-23T05:24:17;18.10;98.90
2054;DHT22;1032;52.542;13.440;2022-07-23T05:26:44;18.50;99.20
2054;DHT22;1032;52.542;13.440;2022-07-23T05:29:11;17.80;98.80
2054;DHT22;1032;52.542;13.440;2022-07-23T05:31:37;18.30;99.10
2054;DHT22;1032;52.542;13.440;2022-07-23T05:34:05;18.10;99.10
2054;DHT22;1032;52.542;13.440;2022-07-23T05:36:32;18.10;99.20
2054;DHT22;1032;52.542;13.440;2022-07-23T05:39:02;18.50;99.60
2054;DHT22;1032;52.542;13.440;2022-07-23T05:41:32;18.50;99.80
2054;DHT22;1032;52.542;13.440;2022-07-23T05:44:01;18.50;99.90
2054;DHT22;1032;52.542;13.440;2022-07-23T05:46:27;17.70;99.40
2054;DHT22;1032;52.542;13.440;2022-07-23T05:48:57;18.00;99.50
2054;DHT22;1032;52.542;13.440;2022-07-23T05:51:43;17.80;99.30
2054;DHT22;1032;52.542;13.440;2022-07-23T05:54:12;18.20;99.60
2054;DHT22;1032;52.542;13.440;2022-07-23T05:56:39;18.20;99.70
2054;DHT22;1032;52.542;13.440;2022-07-23T05:59:05;18.20;99.50
2054;DHT22;1032;52.542;13.440;2022-07-23T06:01:32;18.40;99.60
2054;DHT22;1032;52.542;13.440;2022-07-23T06:04:05;18.10;99.50
2054;DHT22;1032;52.542;13.440;2022-07-23T06:06:35;18.50;99.90
2054;DHT22;1032;52.542;13.440;2022-07-23T06:09:02;18.50;99.90
2054;DHT22;1032;52.542;13.440;2022-07-23T06:11:30;18.80;99.80
2054;DHT22;1032;52.542;13.440;2022-07-23T06:13:57;18.90;99.90
2054;DHT22;1032;52.542;13.440;2022-07-23T06:16:34;18.50;99.50
2054;DHT22;1032;52.542;13.440;2022-07-23T06:19:01;18.80;99.90
2054;DHT22;1032;52.542;13.440;2022-07-23T06:21:29;18.50;99.90
2054;DHT22;1032;52.542;13.440;2022-07-23T06:23:57;18.40;99.90
2054;DHT22;1032;52.542;13.440;2022-07-23T06:26:23;18.40;99.90
2054;DHT22;1032;52.542;13.440;2022-07-23T06:28:51;18.50;99.90
2054;DHT22;1032;52.542;13.440;2022-07-23T06:31:18;18.20;99.90
2054;DHT22;1032;52.542;13.440;2022-07-23T06:33:44;19.00;99.90
2054;DHT22;1032;52.542;13.440;2022-07-23T06:36:11;18.50;99.90
2054;DHT22;1032;52.542;13.440;2022-07-23T06:38:39;18.60;99.90
2054;DHT22;1032;52.542;13.440;2022-07-23T06:41:06;18.70;99.90
2054;DHT22;1032;52.542;13.440;2022-07-23T06:43:33;18.70;99.90
2054;DHT22;1032;52.542;13.440;2022-07-23T06:46:01;18.60;99.90
2054;DHT22;1032;52.542;13.440;2022-07-23T06:48:27;19.10;99.90
2054;DHT22;1032;52.542;13.440;2022-07-23T06:50:54;18.90;99.90
2054;DHT22;1032;52.542;13.440;2022-07-23T06:53:23;18.60;99.90
2054;DHT22;1032;52.542;13.440;2022-07-23T06:55:50;18.60;99.90
2054;DHT22;1032;52.542;13.440;2022-07-23T06:58:16;18.70;99.90
2054;DHT22;1032;52.542;13.440;2022-07-23T07:00:44;18.70;99.90
2054;DHT22;1032;52.542;13.440;2022-07-23T07:03:12;18.70;99.90
2054;DHT22;1032;52.542;13.440;2022-07-23T07:05:39;18.70;99.90
2054;DHT22;1032;52.542;13.440;2022-07-23T07:08:06;18.30;99.90
2054;DHT22;1032;52.542;13.440;2022-07-23T07:10:32;18.20;99.90
2054;DHT22;1032;52.542;13.440;2022-07-23T07:12:59;18.80;99.90
2054;DHT22;1032;52.542;13.440;2022-07-23T07:15:26;18.80;99.90
2054;DHT22;1032;52.542;13.440;2022-07-23T07:17:52;18.40;99.90
2054;DHT22;1032;52.542;13.440;2022-07-23T07:20:20;18.70;99.90
2054;DHT22;1032;52.542;13.440;2022-07-23T07:22:47;19.00;99.90
2054;DHT22;1032;52.542;13.440;2022-07-23T07:25:13;18.80;99.90
2054;DHT22;1032;52.542;13.440;2022-07-23T07:27:40;19.10;99.90
2054;DHT22;1032;52.542;13.440;2022-07-23T07:30:10;19.10;99.90
2054;DHT22;1032;52.542;13.440;2022-07-23T07:32:37;19.20;99.90
2054;DHT22;1032;52.542;13.440;2022-07-23T07:35:04;19.40;99.90
2054;DHT22;1032;52.542;13.440;2022-07-23T07:37:33;19.40;99.90
2054;DHT22;1032;52.542;13.440;2022-07-23T07:39:59;19.80;99.90
2054;DHT22;1032;52.542;13.440;2022-07-23T07:42:26;19.60;99.90
2054;DHT22;1032;52.542;13.440;2022-07-23T07:44:53;19.70;99.90
2054;DHT22;1032;52.542;13.440;2022-07-23T07:47:19;19.70;99.90
2054;DHT22;1032;52.542;13.440;2022-07-23T07:49:46;19.70;99.90
2054;DHT22;1032;52.542;13.440;2022-07-23T07:52:12;19.80;99.90
2054;DHT22;1032;52.542;13.440;2022-07-23T07:54:40;20.00;99.90
2054;DHT22;1032;52.542;13.440;2022-07-23T07:57:08;20.20;99.90
2054;DHT22;1032;52.542;13.440;2022-07-23T07:59:35;19.90;99.90
2054;DHT22;1032;52.542;13.440;2022-07-23T08:02:01;19.90;99.90
2054;DHT22;1032;52.542;13.440;2022-07-23T08:04:28;19.90;99.90
2054;DHT22;1032;52.542;13.440;2022-07-23T08:06:55;20.10;99.90
2054;DHT22;1032;52.542;13.440;2022-07-23T08:09:21;20.30;99.90
2054;DHT22;1032;52.542;13.440;2022-07-23T08:11:49;20.10;99.90
2054;DHT22;1032;52.542;13.440;2022-07-23T08:14:17;20.30;99.90
2054;DHT22;1032;52.542;13.440;2022-07-23T08:16:43;20.20;99.90
2054;DHT22;1032;52.542;13.440;2022-07-23T08:19:10;20.30;99.70
2054;DHT22;1032;52.542;13.440;2022-07-23T08:21:37;20.40;99.30
2054;DHT22;1032;52.542;13.440;2022-07-23T08:24:03;20.30;99.30
2054;DHT22;1032;52.542;13.440;2022-07-23T08:26:30;20.30;99.30
2054;DHT22;1032;52.542;13.440;2022-07-23T08:28:58;20.70;99.20
2054;DHT22;1032;52.542;13.440;2022-07-23T08:31:25;20.40;98.70
2054;DHT22;1032;52.542;13.440;2022-07-23T08:33:51;20.40;98.70
2054;DHT22;1032;52.542;13.440;2022-07-23T08:36:19;20.50;98.40
2054;DHT22;1032;52.542;13.440;2022-07-23T08:38:46;20.50;98.30
2054;DHT22;1032;52.542;13.440;2022-07-23T08:41:12;20.60;98.60
2054;DHT22;1032;52.542;13.440;2022-07-23T08:43:40;20.50;97.90
2054;DHT22;1032;52.542;13.440;2022-07-23T08:46:09;20.60;98.40
2054;DHT22;1032;52.542;13.440;2022-07-23T08:48:36;20.40;98.30
2054;DHT22;1032;52.542;13.440;2022-07-23T08:51:04;20.10;98.50
2054;DHT22;1032;52.542;13.440;2022-07-23T08:53:33;19.80;97.80
2054;DHT22;1032;52.542;13.440;2022-07-23T08:56:02;20.40;97.60
2054;DHT22;1032;52.542;13.440;2022-07-23T08:58:29;20.70;97.50
2054;DHT22;1032;52.542;13.440;2022-07-23T09:00:56;20.90;97.40
2054;DHT22;1032;52.542;13.440;2022-07-23T09:03:25;20.60;97.20
2054;DHT22;1032;52.542;13.440;2022-07-23T09:05:53;20.50;96.90
2054;DHT22;1032;52.542;13.440;2022-07-23T09:08:23;20.30;96.60
2054;DHT22;1032;52.542;13.440;2022-07-23T09:10:52;20.50;96.50
2054;DHT22;1032;52.542;13.440;2022-07-23T09:13:31;20.60;96.30
2054;DHT22;1032;52.542;13.440;2022-07-23T09:16:01;20.50;95.50
2054;DHT22;1032;52.542;13.440;2022-07-23T09:18:35;21.20;96.00
2054;DHT22;1032;52.542;13.440;2022-07-23T09:21:08;20.60;95.40
2054;DHT22;1032;52.542;13.440;2022-07-23T09:23:39;21.50;95.50
2054;DHT22;1032;52.542;13.440;2022-07-23T09:26:29;20.80;95.10
2054;DHT22;1032;52.542;13.440;2022-07-23T09:29:02;20.70;95.10
2054;DHT22;1032;52.542;13.440;2022-07-23T09:31:45;20.80;95.50
2054;DHT22;1032;52.542;13.440;2022-07-23T09:34:17;20.80;95.30
2054;DHT22;1032;52.542;13.440;2022-07-23T09:36:44;20.80;95.20
2054;DHT22;1032;52.542;13.440;2022-07-23T09:39:12;20.80;95.30
2054;DHT22;1032;52.542;13.440;2022-07-23T09:41:41;20.90;95.40
2054;DHT22;1032;52.542;13.440;2022-07-23T09:44:13;21.00;95.10
2054;DHT22;1032;52.542;13.440;2022-07-23T09:46:41;21.10;94.80
2054;DHT22;1032;52.542;13.440;2022-07-23T09:49:16;21.10;94.60
2054;DHT22;1032;52.542;13.440;2022-07-23T09:51:48;21.30;94.70
2054;DHT22;1032;52.542;13.440;2022-07-23T09:54:26;21.10;94.70
2054;DHT22;1032;52.542;13.440;2022-07-23T09:56:54;21.10;94.40
2054;DHT22;1032;52.542;13.440;2022-07-23T09:59:25;21.70;94.70
2054;DHT22;1032;52.542;13.440;2022-07-23T10:01:53;21.40;94.50
2054;DHT22;1032;52.542;13.440;2022-07-23T10:04:24;21.30;94.10
2054;DHT22;1032;52.542;13.440;2022-07-23T10:07:09;21.50;94.10
2054;DHT22;1032;52.542;13.440;2022-07-23T10:10:13;21.70;93.70
2054;DHT22;1032;52.542;13.440;2022-07-23T10:13:10;21.90;93.10
2054;DHT22;1032;52.542;13.440;2022-07-23T10:15:54;22.30;92.80
2054;DHT22;1032;52.542;13.440;2022-07-23T10:18:21;22.30;92.00
2054;DHT22;1032;52.542;13.440;2022-07-23T10:20:49;22.30;91.60
2054;DHT22;1032;52.542;13.440;2022-07-23T10:23:22;22.10;91.20
2054;DHT22;1032;52.542;13.440;2022-07-23T10:25:57;22.10;91.40
2054;DHT22;1032;52.542;13.440;2022-07-23T10:28:40;22.10;91.50
2054;DHT22;1032;52.542;13.440;2022-07-23T10:31:25;22.30;91.40
2054;DHT22;1032;52.542;13.440;2022-07-23T10:33:59;22.30;91.30
2054;DHT22;1032;52.542;13.440;2022-07-23T10:36:32;22.30;91.20
2054;DHT22;1032;52.542;13.440;2022-07-23T10:39:05;22.50;91.30
2054;DHT22;1032;52.542;13.440;2022-07-23T10:41:33;22.40;91.00
2054;DHT22;1032;52.542;13.440;2022-07-23T10:44:07;22.40;90.90
2054;DHT22;1032;52.542;13.440;2022-07-23T10:46:34;22.40;90.60
2054;DHT22;1032;52.542;13.440;2022-07-23T10:49:24;22.40;90.50
2054;DHT22;1032;52.542;13.440;2022-07-23T10:52:21;22.40;89.80
2054;DHT22;1032;52.542;13.440;2022-07-23T10:54:50;22.50;89.60
2054;DHT22;1032;52.542;13.440;2022-07-23T10:57:18;23.00;90.30
2054;DHT22;1032;52.542;13.440;2022-07-23T11:00:14;22.50;90.10
2054;DHT22;1032;52.542;13.440;2022-07-23T11:02:43;22.60;89.80
2054;DHT22;1032;52.542;13.440;2022-07-23T11:05:12;22.60;90.00
2054;DHT22;1032;52.542;13.440;2022-07-23T11:08:11;22.70;90.00
2054;DHT22;1032;52.542;13.440;2022-07-23T11:10:42;22.90;89.00
2054;DHT22;1032;52.542;13.440;2022-07-23T11:13:32;23.50;89.90
2054;DHT22;1032;52.542;13.440;2022-07-23T11:16:12;23.20;89.00
2054;DHT22;1032;52.542;13.440;2022-07-23T11:18:59;23.40;88.40
2054;DHT22;1032;52.542;13.440;2022-07-23T11:21:44;23.40;87.50
2054;DHT22;1032;52.542;13.440;2022-07-23T11:24:14;23.40;87.20
2054;DHT22;1032;52.542;13.440;2022-07-23T11:26:54;23.40;86.70
2054;DHT22;1032;52.542;13.440;2022-07-23T11:29:48;23.50;86.30
2054;DHT22;1032;52.542;13.440;2022-07-23T11:32:26;23.60;85.20
2054;DHT22;1032;52.542;13.440;2022-07-23T11:34:54;23.60;85.40
2054;DHT22;1032;52.542;13.440;2022-07-23T11:37:29;23.50;85.60
2054;DHT22;1032;52.542;13.440;2022-07-23T11:39:59;23.40;84.50
2054;DHT22;1032;52.542;13.440;2022-07-23T11:42:26;23.30;84.90
2054;DHT22;1032;52.542;13.440;2022-07-23T11:44:52;23.30;85.30
2054;DHT22;1032;52.542;13.440;2022-07-23T11:47:22;23.20;85.20
2054;DHT22;1032;52.542;13.440;2022-07-23T11:49:52;23.20;85.40
2054;DHT22;1032;52.542;13.440;2022-07-23T11:52:19;23.30;85.70
2054;DHT22;1032;52.542;13.440;2022-07-23T11:54:48;23.30;86.00
2054;DHT22;1032;52.542;13.440;2022-07-23T11:57:16;23.30;86.00
2054;DHT22;1032;52.542;13.440;2022-07-23T11:59:43;23.30;85.50
2054;DHT22;1032;52.542;13.440;2022-07-23T12:02:12;23.40;85.50
2054;DHT22;1032;52.542;13.440;2022-07-23T12:04:39;23.50;85.60
2054;DHT22;1032;52.542;13.440;2022-07-23T12:07:27;23.60;85.10
2054;DHT22;1032;52.542;13.440;2022-07-23T12:09:55;23.70;84.10
2054;DHT22;1032;52.542;13.440;2022-07-23T12:12:24;23.70;84.30
2054;DHT22;1032;52.542;13.440;2022-07-23T12:14:52;23.80;84.20
2054;DHT22;1032;52.542;13.440;2022-07-23T12:17:19;23.90;84.20
2054;DHT22;1032;52.542;13.440;2022-07-23T12:19:47;24.10;84.00
2054;DHT22;1032;52.542;13.440;2022-07-23T12:22:14;24.10;83.20
2054;DHT22;1032;52.542;13.440;2022-07-23T12:24:54;24.30;82.70
2054;DHT22;1032;52.542;13.440;2022-07-23T12:27:22;24.40;82.00
2054;DHT22;1032;52.542;13.440;2022-07-23T12:29:50;24.50;81.60
2054;DHT22;1032;52.542;13.440;2022-07-23T12:32:19;24.60;80.60
2054;DHT22;1032;52.542;13.440;2022-07-23T12:34:48;24.70;80.60
2054;DHT22;1032;52.542;13.440;2022-07-23T12:37:27;24.70;80.30
2054;DHT22;1032;52.542;13.440;2022-07-23T12:39:54;24.80;79.10
2054;DHT22;1032;52.542;13.440;2022-07-23T12:42:20;24.30;78.90
2054;DHT22;1032;52.542;13.440;2022-07-23T12:45:06;24.70;79.00
2054;DHT22;1032;52.542;13.440;2022-07-23T12:50:43;24.70;78.90
2054;DHT22;1032;52.542;13.440;2022-07-23T12:53:12;25.20;79.10
2054;DHT22;1032;52.542;13.440;2022-07-23T12:55:40;24.60;78.50
2054;DHT22;1032;52.542;13.440;2022-07-23T12:58:11;24.50;78.70
2054;DHT22;1032;52.542;13.440;2022-07-23T13:01:02;24.60;78.60
2054;DHT22;1032;52.542;13.440;2022-07-23T13:03:32;24.80;77.80
2054;DHT22;1032;52.542;13.440;2022-07-23T13:06:00;24.70;78.80
2054;DHT22;1032;52.542;13.440;2022-07-23T13:08:28;24.70;78.10
2054;DHT22;1032;52.542;13.440;2022-07-23T13:10:55;24.80;78.20
2054;DHT22;1032;52.542;13.440;2022-07-23T13:13:23;25.20;77.70
2054;DHT22;1032;52.542;13.440;2022-07-23T13:15:51;24.80;77.40
2054;DHT22;1032;52.542;13.440;2022-07-23T13:18:19;24.70;77.50
2054;DHT22;1032;52.542;13.440;2022-07-23T13:20:47;24.80;77.30
2054;DHT22;1032;52.542;13.440;2022-07-23T13:23:15;24.80;77.40
2054;DHT22;1032;52.542;13.440;2022-07-23T13:25:42;25.00;76.90
2054;DHT22;1032;52.542;13.440;2022-07-23T13:28:09;24.80;76.50
2054;DHT22;1032;52.542;13.440;2022-07-23T13:30:36;24.70;76.40
2054;DHT22;1032;52.542;13.440;2022-07-23T13:33:03;24.60;77.00
2054;DHT22;1032;52.542;13.440;2022-07-23T13:35:31;24.60;77.30
2054;DHT22;1032;52.542;13.440;2022-07-23T13:37:58;24.60;77.10
2054;DHT22;1032;52.542;13.440;2022-07-23T13:40:25;24.90;77.10
2054;DHT22;1032;52.542;13.440;2022-07-23T13:42:52;24.70;76.20
2054;DHT22;1032;52.542;13.440;2022-07-23T13:45:19;24.80;75.60
2054;DHT22;1032;52.542;13.440;2022-07-23T13:47:45;24.70;75.60
2054;DHT22;1032;52.542;13.440;2022-07-23T13:50:12;24.80;75.30
2054;DHT22;1032;52.542;13.440;2022-07-23T13:52:43;24.90;75.10
2054;DHT22;1032;52.542;13.440;2022-07-23T13:55:09;25.00;74.90
2054;DHT22;1032;52.542;13.440;2022-07-23T13:57:36;25.10;74.80
2054;DHT22;1032;52.542;13.440;2022-07-23T14:00:05;25.10;74.70
2054;DHT22;1032;52.542;13.440;2022-07-23T14:02:32;25.10;74.50
2054;DHT22;1032;52.542;13.440;2022-07-23T14:04:59;25.60;74.80
2054;DHT22;1032;52.542;13.440;2022-07-23T14:07:26;25.20;74.50
2054;DHT22;1032;52.542;13.440;2022-07-23T14:09:53;24.90;73.90
2054;DHT22;1032;52.542;13.440;2022-07-23T14:12:20;24.90;73.80
2054;DHT22;1032;52.542;13.440;2022-07-23T14:14:47;24.90;73.70
2054;DHT22;1032;52.542;13.440;2022-07-23T14:17:13;24.80;73.70
2054;DHT22;1032;52.542;13.440;2022-07-23T14:19:40;24.80;73.50
2054;DHT22;1032;52.542;13.440;2022-07-23T14:22:06;24.80;74.30
2054;DHT22;1032;52.542;13.440;2022-07-23T14:24:33;24.80;73.10
2054;DHT22;1032;52.542;13.440;2022-07-23T14:27:02;25.00;73.30
2054;DHT22;1032;52.542;13.440;2022-07-23T14:29:30;25.10;72.70
2054;DHT22;1032;52.542;13.440;2022-07-23T14:31:56;25.20;72.70
2054;DHT22;1032;52.542;13.440;2022-07-23T14:34:23;25.20;71.90
2054;DHT22;1032;52.542;13.440;2022-07-23T14:36:50;25.40;72.10
2054;DHT22;1032;52.542;13.440;2022-07-23T14:39:17;25.50;71.60
2054;DHT22;1032;52.542;13.440;2022-07-23T14:41:44;25.50;70.60
2054;DHT22;1032;52.542;13.440;2022-07-23T14:44:12;25.60;70.30
2054;DHT22;1032;52.542;13.440;2022-07-23T14:46:38;25.60;69.70
2054;DHT22;1032;52.542;13.440;2022-07-23T14:49:05;25.60;69.90
2054;DHT22;1032;52.542;13.440;2022-07-23T14:51:32;25.60;69.90
2054;DHT22;1032;52.542;13.440;2022-07-23T14:53:58;25.50;69.30
2054;DHT22;1032;52.542;13.440;2022-07-23T14:56:25;25.50;69.10
2054;DHT22;1032;52.542;13.440;2022-07-23T14:58:52;25.40;69.20
2054;DHT22;1032;52.542;13.440;2022-07-23T15:01:22;25.30;69.20
2054;DHT22;1032;52.542;13.440;2022-07-23T15:03:49;25.40;69.10
2054;DHT22;1032;52.542;13.440;2022-07-23T15:06:16;25.20;68.60
2054;DHT22;1032;52.542;13.440;2022-07-23T15:08:43;25.10;68.30
2054;DHT22;1032;52.542;13.440;2022-07-23T15:11:09;25.10;68.50
2054;DHT22;1032;52.542;13.440;2022-07-23T15:13:36;25.10;68.50
2054;DHT22;1032;52.542;13.440;2022-07-23T15:16:04;25.10;68.10
2054;DHT22;1032;52.542;13.440;2022-07-23T15:18:32;25.20;68.30
2054;DHT22;1032;52.542;13.440;2022-07-23T15:20:59;25.20;67.90
2054;DHT22;1032;52.542;13.440;2022-07-23T15:23:26;25.10;67.50
2054;DHT22;1032;52.542;13.440;2022-07-23T15:25:53;25.10;67.60
2054;DHT22;1032;52.542;13.440;2022-07-23T15:28:20;25.10;67.70
2054;DHT22;1032;52.542;13.440;2022-07-23T15:30:47;25.10;67.50
2054;DHT22;1032;52.542;13.440;2022-07-23T15:33:14;25.10;67.10
2054;DHT22;1032;52.542;13.440;2022-07-23T15:35:42;25.00;66.50
2054;DHT22;1032;52.542;13.440;2022-07-23T15:38:08;25.00;66.60
2054;DHT22;1032;52.542;13.440;2022-07-23T15:40:35;24.90;66.50
2054;DHT22;1032;52.542;13.440;2022-07-23T15:43:02;24.80;66.60
2054;DHT22;1032;52.542;13.440;2022-07-23T15:45:30;24.80;67.00
2054;DHT22;1032;52.542;13.440;2022-07-23T15:47:57;24.80;66.20
2054;DHT22;1032;52.542;13.440;2022-07-23T15:50:24;24.70;65.90
2054;DHT22;1032;52.542;13.440;2022-07-23T15:52:52;24.80;65.60
2054;DHT22;1032;52.542;13.440;2022-07-23T15:55:18;24.80;65.10
2054;DHT22;1032;52.542;13.440;2022-07-23T15:57:45;24.70;65.10
2054;DHT22;1032;52.542;13.440;2022-07-23T16:00:12;24.70;65.30